Aviation Digital Data Service (ADDS)

Output produced by METARs form (2047 UTC 25 October 2021)
found at http://www.aviationweather.gov/metar/data/
 
LETO 252030Z 01006KT CAVOK 10/02 Q1021 NOSIG
TAF LETO 251700Z 2518/2618 VRB05KT CAVOK TX21/2615Z TN06/2606Z 
     TEMPO 2522/2609 03010KT
       
LEZG 252030Z 25003KT 230V290 CAVOK 13/04 Q1022
TAF LEZG 251700Z 2518/2618 VRB04KT 9999 FEW040 TX21/2614Z TN08/2606Z 
     BECMG 2519/2521 28008KT 
     PROB30 
     TEMPO 2605/2609 BKN006 
     BECMG 2615/2617 VRB04KT
       
LERT 252030Z VRB02KT CAVOK 20/12 Q1019 NOSIG
TAF LERT 252000Z 2521/2621 13006KT CAVOK TX26/2615Z TN12/2606Z
       
LELC 252030Z 33003KT CAVOK 15/14 Q1021 NOSIG
TAF LELC 251700Z 2518/2618 12010KT 9999 FEW025 TX23/2613Z TN13/2606Z 
     BECMG 2521/2523 35008KT 
     BECMG 2608/2610 07012KT 
     PROB30 
     TEMPO 2610/2616 06015G25KT
       
LEAB 252030Z 16004KT CAVOK 10/03 Q1022 NOSIG
TAF LEAB 251700Z 2518/2618 VRB05KT CAVOK TX21/2615Z TN06/2606Z 
     BECMG 2519/2521 15010KT 
     TEMPO 2521/2608 BKN007 
     PROB30 
     TEMPO 2602/2607 3000 BR BCFG BKN003
       
LEBZ 252030Z 00000KT CAVOK 15/08 Q1020
TAF LEBZ 252000Z 2521/2621 VRB02KT CAVOK TX26/2615Z TN07/2607Z
       
LEMO 252030Z 22009KT 180V240 CAVOK 20/09 Q1018 NOSIG
TAF LEMO 252000Z 2521/2621 22010KT CAVOK TX28/2615Z TN10/2606Z 
     BECMG 2523/2601 VRB02KT 
     BECMG 2609/2611 08010KT
       
LESA 252030Z 21003KT CAVOK 06/03 Q1023
TAF LESA 252000Z 2521/2621 VRB05KT 9999 FEW040 TX19/2615Z TN03/2606Z 
     BECMG 2602/2603 03008KT 
     PROB40 
     TEMPO 2603/2609 3000 BR BCFG SCT003 
     PROB40 
     TEMPO 2605/2608 0500 FG VV001
       
GCLP 252030Z 36009KT 9999 FEW025 BKN050 22/17 Q1020 NOSIG
TAF GCLP 252000Z 2521/2621 02014KT 9999 SCT030 TX24/2614Z TN20/2606Z 
     PROB30 
     TEMPO 2600/2606 RA
       
LIED 251955Z 28002KT 9999 FEW025 BKN040 18/16 Q1018 RMK BKN VIS MIN 9999 WIND THR35 29002KT WIND THR17 29002KT BLU
TAF LIED 252000Z 2521/2606 34005KT 9999 FEW025 SCT050
       
LIPR 252020Z AUTO 22002KT 9999 OVC039/// 13/10 Q1022
TAF LIPR 251700Z 2518/2618 29006KT 9999 SCT040 
     TEMPO 2600/2608 RA